sensor_id;sensor_type;location;lat;lon;timestamp;P1;durP1;ratioP1;P2;durP2;ratioP2
34814;SDS011;21030;53.912;15.214;2022-07-23T00:00:19;1.25;;;1.15;;
34814;SDS011;21030;53.912;15.214;2022-07-23T00:02:46;1.27;;;0.77;;
34814;SDS011;21030;53.912;15.214;2022-07-23T00:05:14;2.53;;;1.23;;
34814;SDS011;21030;53.912;15.214;2022-07-23T00:07:41;2.75;;;1.25;;
34814;SDS011;21030;53.912;15.214;2022-07-23T00:10:08;4.93;;;1.48;;
34814;SDS011;21030;53.912;15.214;2022-07-23T00:12:36;1.83;;;1.05;;
34814;SDS011;21030;53.912;15.214;2022-07-23T00:15:17;2.85;;;1.35;;
34814;SDS011;21030;53.912;15.214;2022-07-23T00:17:44;2.05;;;1.38;;
34814;SDS011;21030;53.912;15.214;2022-07-23T00:20:11;4.47;;;1.95;;
34814;SDS011;21030;53.912;15.214;2022-07-23T00:22:48;3.72;;;1.20;;
34814;SDS011;21030;53.912;15.214;2022-07-23T00:25:17;9.55;;;1.23;;
34814;SDS011;21030;53.912;15.214;2022-07-23T00:27:56;3.15;;;1.00;;
34814;SDS011;21030;53.912;15.214;2022-07-23T00:32:57;1.23;;;0.70;;
34814;SDS011;21030;53.912;15.214;2022-07-23T00:35:26;1.13;;;1.02;;
34814;SDS011;21030;53.912;15.214;2022-07-23T00:37:56;1.42;;;1.05;;
34814;SDS011;21030;53.912;15.214;2022-07-23T00:40:23;0.95;;;0.82;;
34814;SDS011;21030;53.912;15.214;2022-07-23T00:42:51;2.60;;;1.23;;
34814;SDS011;21030;53.912;15.214;2022-07-23T00:45:19;4.95;;;1.55;;
34814;SDS011;21030;53.912;15.214;2022-07-23T00:47:47;1.83;;;1.05;;
34814;SDS011;21030;53.912;15.214;2022-07-23T00:50:14;1.50;;;0.98;;
34814;SDS011;21030;53.912;15.214;2022-07-23T00:52:41;7.55;;;2.40;;
34814;SDS011;21030;53.912;15.214;2022-07-23T00:55:09;1.85;;;1.23;;
34814;SDS011;21030;53.912;15.214;2022-07-23T00:57:37;0.85;;;0.60;;
34814;SDS011;21030;53.912;15.214;2022-07-23T01:00:06;3.95;;;0.85;;
34814;SDS011;21030;53.912;15.214;2022-07-23T01:02:37;2.40;;;1.30;;
34814;SDS011;21030;53.912;15.214;2022-07-23T01:05:05;1.60;;;1.08;;
34814;SDS011;21030;53.912;15.214;2022-07-23T01:07:33;1.95;;;1.00;;
34814;SDS011;21030;53.912;15.214;2022-07-23T01:10:00;3.38;;;1.70;;
34814;SDS011;21030;53.912;15.214;2022-07-23T01:12:29;1.02;;;0.63;;
34814;SDS011;21030;53.912;15.214;2022-07-23T01:14:56;2.85;;;1.15;;
34814;SDS011;21030;53.912;15.214;2022-07-23T01:17:27;2.15;;;1.25;;
34814;SDS011;21030;53.912;15.214;2022-07-23T01:19:54;1.65;;;1.30;;
34814;SDS011;21030;53.912;15.214;2022-07-23T01:22:21;5.38;;;1.70;;
34814;SDS011;21030;53.912;15.214;2022-07-23T01:24:55;3.92;;;1.10;;
34814;SDS011;21030;53.912;15.214;2022-07-23T01:27:22;3.97;;;0.98;;
34814;SDS011;21030;53.912;15.214;2022-07-23T01:29:49;2.63;;;1.48;;
34814;SDS011;21030;53.912;15.214;2022-07-23T01:32:16;1.50;;;1.33;;
34814;SDS011;21030;53.912;15.214;2022-07-23T01:34:43;1.85;;;0.70;;
34814;SDS011;21030;53.912;15.214;2022-07-23T01:37:10;2.38;;;2.15;;
34814;SDS011;21030;53.912;15.214;2022-07-23T01:39:37;4.00;;;1.35;;
34814;SDS011;21030;53.912;15.214;2022-07-23T01:42:04;0.98;;;0.73;;
34814;SDS011;21030;53.912;15.214;2022-07-23T01:44:31;1.38;;;0.95;;
34814;SDS011;21030;53.912;15.214;2022-07-23T01:46:58;2.05;;;1.17;;
34814;SDS011;21030;53.912;15.214;2022-07-23T01:49:25;1.50;;;1.23;;
34814;SDS011;21030;53.912;15.214;2022-07-23T01:51:52;2.38;;;1.42;;
34814;SDS011;21030;53.912;15.214;2022-07-23T01:54:30;2.33;;;1.10;;
34814;SDS011;21030;53.912;15.214;2022-07-23T01:56:58;0.95;;;0.85;;
34814;SDS011;21030;53.912;15.214;2022-07-23T01:59:26;2.05;;;0.35;;
34814;SDS011;21030;53.912;15.214;2022-07-23T02:01:54;3.22;;;1.02;;
34814;SDS011;21030;53.912;15.214;2022-07-23T02:04:21;1.25;;;0.85;;
34814;SDS011;21030;53.912;15.214;2022-07-23T02:06:50;2.25;;;1.02;;
34814;SDS011;21030;53.912;15.214;2022-07-23T02:09:18;3.10;;;1.95;;
34814;SDS011;21030;53.912;15.214;2022-07-23T02:11:45;1.10;;;0.68;;
34814;SDS011;21030;53.912;15.214;2022-07-23T02:14:12;3.40;;;1.33;;
34814;SDS011;21030;53.912;15.214;2022-07-23T02:16:39;1.80;;;1.27;;
34814;SDS011;21030;53.912;15.214;2022-07-23T02:19:07;4.30;;;1.73;;
34814;SDS011;21030;53.912;15.214;2022-07-23T02:21:34;1.27;;;0.57;;
34814;SDS011;21030;53.912;15.214;2022-07-23T02:24:01;1.80;;;0.88;;
34814;SDS011;21030;53.912;15.214;2022-07-23T02:26:28;1.90;;;1.17;;
34814;SDS011;21030;53.912;15.214;2022-07-23T02:28:55;2.10;;;1.13;;
34814;SDS011;21030;53.912;15.214;2022-07-23T02:31:22;2.15;;;0.77;;
34814;SDS011;21030;53.912;15.214;2022-07-23T02:33:49;2.45;;;1.58;;
34814;SDS011;21030;53.912;15.214;2022-07-23T02:36:16;2.53;;;0.85;;
34814;SDS011;21030;53.912;15.214;2022-07-23T02:38:43;1.20;;;0.70;;
34814;SDS011;21030;53.912;15.214;2022-07-23T02:41:10;2.60;;;1.33;;
34814;SDS011;21030;53.912;15.214;2022-07-23T02:43:37;8.50;;;1.02;;
34814;SDS011;21030;53.912;15.214;2022-07-23T02:46:04;1.88;;;1.30;;
34814;SDS011;21030;53.912;15.214;2022-07-23T02:48:32;2.67;;;0.93;;
34814;SDS011;21030;53.912;15.214;2022-07-23T02:51:00;2.92;;;1.38;;
34814;SDS011;21030;53.912;15.214;2022-07-23T02:53:27;3.28;;;1.38;;
34814;SDS011;21030;53.912;15.214;2022-07-23T02:55:54;9.73;;;1.50;;
34814;SDS011;21030;53.912;15.214;2022-07-23T02:58:21;5.47;;;1.50;;
34814;SDS011;21030;53.912;15.214;2022-07-23T03:00:48;3.08;;;1.35;;
34814;SDS011;21030;53.912;15.214;2022-07-23T03:03:17;1.25;;;0.90;;
34814;SDS011;21030;53.912;15.214;2022-07-23T03:05:44;1.13;;;0.95;;
34814;SDS011;21030;53.912;15.214;2022-07-23T03:08:11;2.58;;;1.52;;
34814;SDS011;21030;53.912;15.214;2022-07-23T03:10:38;0.98;;;0.43;;
34814;SDS011;21030;53.912;15.214;2022-07-23T03:13:05;1.73;;;0.90;;
34814;SDS011;21030;53.912;15.214;2022-07-23T03:15:34;6.13;;;2.00;;
34814;SDS011;21030;53.912;15.214;2022-07-23T03:18:01;1.15;;;0.73;;
34814;SDS011;21030;53.912;15.214;2022-07-23T03:20:28;2.05;;;1.15;;
34814;SDS011;21030;53.912;15.214;2022-07-23T03:22:55;11.45;;;1.83;;
34814;SDS011;21030;53.912;15.214;2022-07-23T03:25:22;12.98;;;1.90;;
34814;SDS011;21030;53.912;15.214;2022-07-23T03:27:50;2.08;;;1.73;;
34814;SDS011;21030;53.912;15.214;2022-07-23T03:30:17;2.55;;;1.52;;
34814;SDS011;21030;53.912;15.214;2022-07-23T03:32:44;1.13;;;1.00;;
34814;SDS011;21030;53.912;15.214;2022-07-23T03:35:11;2.00;;;0.60;;
34814;SDS011;21030;53.912;15.214;2022-07-23T03:37:41;3.75;;;1.65;;
34814;SDS011;21030;53.912;15.214;2022-07-23T03:40:12;9.45;;;2.13;;
34814;SDS011;21030;53.912;15.214;2022-07-23T03:42:39;5.50;;;1.88;;
34814;SDS011;21030;53.912;15.214;2022-07-23T03:45:08;3.95;;;1.45;;
34814;SDS011;21030;53.912;15.214;2022-07-23T03:47:36;2.53;;;1.17;;
34814;SDS011;21030;53.912;15.214;2022-07-23T03:50:03;1.85;;;1.63;;
34814;SDS011;21030;53.912;15.214;2022-07-23T03:52:30;2.80;;;1.52;;
34814;SDS011;21030;53.912;15.214;2022-07-23T03:54:57;1.77;;;0.95;;
34814;SDS011;21030;53.912;15.214;2022-07-23T03:57:25;0.88;;;0.55;;
34814;SDS011;21030;53.912;15.214;2022-07-23T03:59:53;1.85;;;0.63;;
34814;SDS011;21030;53.912;15.214;2022-07-23T04:02:20;3.95;;;1.13;;
34814;SDS011;21030;53.912;15.214;2022-07-23T04:04:47;1.15;;;0.80;;
34814;SDS011;21030;53.912;15.214;2022-07-23T04:07:14;2.88;;;0.70;;
34814;SDS011;21030;53.912;15.214;2022-07-23T04:09:44;2.50;;;0.93;;
34814;SDS011;21030;53.912;15.214;2022-07-23T04:12:11;3.65;;;1.45;;
34814;SDS011;21030;53.912;15.214;2022-07-23T04:14:39;2.20;;;1.27;;
34814;SDS011;21030;53.912;15.214;2022-07-23T04:17:06;2.20;;;1.55;;
34814;SDS011;21030;53.912;15.214;2022-07-23T04:19:33;1.13;;;0.82;;
34814;SDS011;21030;53.912;15.214;2022-07-23T04:22:06;3.53;;;1.55;;
34814;SDS011;21030;53.912;15.214;2022-07-23T04:24:34;3.60;;;1.55;;
34814;SDS011;21030;53.912;15.214;2022-07-23T04:27:01;2.78;;;1.40;;
34814;SDS011;21030;53.912;15.214;2022-07-23T04:29:31;2.15;;;1.30;;
34814;SDS011;21030;53.912;15.214;2022-07-23T04:31:58;1.90;;;1.30;;
34814;SDS011;21030;53.912;15.214;2022-07-23T04:34:25;5.20;;;1.83;;
34814;SDS011;21030;53.912;15.214;2022-07-23T04:36:53;11.48;;;1.83;;
34814;SDS011;21030;53.912;15.214;2022-07-23T04:39:20;2.13;;;1.15;;
34814;SDS011;21030;53.912;15.214;2022-07-23T04:41:47;11.45;;;1.67;;
34814;SDS011;21030;53.912;15.214;2022-07-23T04:44:14;1.02;;;0.52;;
34814;SDS011;21030;53.912;15.214;2022-07-23T04:46:41;2.42;;;1.58;;
34814;SDS011;21030;53.912;15.214;2022-07-23T04:49:10;3.75;;;1.30;;
34814;SDS011;21030;53.912;15.214;2022-07-23T04:51:37;1.33;;;0.90;;
34814;SDS011;21030;53.912;15.214;2022-07-23T04:54:04;1.52;;;0.77;;
34814;SDS011;21030;53.912;15.214;2022-07-23T04:56:31;1.95;;;0.73;;
34814;SDS011;21030;53.912;15.214;2022-07-23T04:58:58;3.03;;;1.23;;
34814;SDS011;21030;53.912;15.214;2022-07-23T05:01:25;0.98;;;0.80;;
34814;SDS011;21030;53.912;15.214;2022-07-23T05:03:53;1.25;;;0.68;;
34814;SDS011;21030;53.912;15.214;2022-07-23T05:06:20;2.05;;;0.90;;
34814;SDS011;21030;53.912;15.214;2022-07-23T05:08:47;1.70;;;0.90;;
34814;SDS011;21030;53.912;15.214;2022-07-23T05:11:14;2.30;;;1.08;;
34814;SDS011;21030;53.912;15.214;2022-07-23T05:13:42;1.83;;;0.75;;
34814;SDS011;21030;53.912;15.214;2022-07-23T05:16:09;0.80;;;0.60;;
34814;SDS011;21030;53.912;15.214;2022-07-23T05:18:36;1.70;;;0.85;;
34814;SDS011;21030;53.912;15.214;2022-07-23T05:21:03;0.52;;;0.50;;
34814;SDS011;21030;53.912;15.214;2022-07-23T05:23:30;1.90;;;1.13;;
34814;SDS011;21030;53.912;15.214;2022-07-23T05:25:57;0.85;;;0.57;;
34814;SDS011;21030;53.912;15.214;2022-07-23T05:28:25;0.40;;;0.32;;
34814;SDS011;21030;53.912;15.214;2022-07-23T05:30:52;1.30;;;1.08;;
34814;SDS011;21030;53.912;15.214;2022-07-23T05:33:19;0.28;;;0.20;;
34814;SDS011;21030;53.912;15.214;2022-07-23T05:35:46;1.63;;;1.25;;
34814;SDS011;21030;53.912;15.214;2022-07-23T05:38:15;11.27;;;0.70;;
34814;SDS011;21030;53.912;15.214;2022-07-23T05:40:42;0.90;;;0.65;;
34814;SDS011;21030;53.912;15.214;2022-07-23T05:43:09;1.08;;;0.68;;
34814;SDS011;21030;53.912;15.214;2022-07-23T05:45:36;3.15;;;1.02;;
34814;SDS011;21030;53.912;15.214;2022-07-23T05:48:04;0.47;;;0.22;;
34814;SDS011;21030;53.912;15.214;2022-07-23T05:50:31;0.55;;;0.30;;
34814;SDS011;21030;53.912;15.214;2022-07-23T05:52:58;2.13;;;0.73;;
34814;SDS011;21030;53.912;15.214;2022-07-23T05:55:25;0.60;;;0.25;;
34814;SDS011;21030;53.912;15.214;2022-07-23T05:57:55;2.35;;;0.75;;
34814;SDS011;21030;53.912;15.214;2022-07-23T06:00:23;0.20;;;0.20;;
34814;SDS011;21030;53.912;15.214;2022-07-23T06:02:51;4.10;;;1.25;;
34814;SDS011;21030;53.912;15.214;2022-07-23T06:05:21;2.33;;;1.40;;
34814;SDS011;21030;53.912;15.214;2022-07-23T06:07:48;1.02;;;0.57;;
34814;SDS011;21030;53.912;15.214;2022-07-23T06:10:15;0.63;;;0.52;;
34814;SDS011;21030;53.912;15.214;2022-07-23T06:12:42;1.33;;;0.57;;
34814;SDS011;21030;53.912;15.214;2022-07-23T06:15:09;5.97;;;0.82;;
34814;SDS011;21030;53.912;15.214;2022-07-23T06:17:37;1.75;;;0.50;;
34814;SDS011;21030;53.912;15.214;2022-07-23T06:20:08;1.30;;;0.93;;
34814;SDS011;21030;53.912;15.214;2022-07-23T06:22:36;1.90;;;0.85;;
34814;SDS011;21030;53.912;15.214;2022-07-23T06:25:04;1.23;;;0.52;;
34814;SDS011;21030;53.912;15.214;2022-07-23T06:27:44;1.35;;;0.45;;
34814;SDS011;21030;53.912;15.214;2022-07-23T06:30:12;1.10;;;0.30;;
34814;SDS011;21030;53.912;15.214;2022-07-23T06:32:44;0.52;;;0.38;;
34814;SDS011;21030;53.912;15.214;2022-07-23T06:35:12;3.75;;;1.05;;
34814;SDS011;21030;53.912;15.214;2022-07-23T06:37:39;0.57;;;0.20;;
34814;SDS011;21030;53.912;15.214;2022-07-23T06:40:07;0.40;;;0.40;;
34814;SDS011;21030;53.912;15.214;2022-07-23T06:42:34;5.32;;;1.40;;
34814;SDS011;21030;53.912;15.214;2022-07-23T06:45:03;1.48;;;0.98;;
34814;SDS011;21030;53.912;15.214;2022-07-23T06:47:31;0.63;;;0.50;;
34814;SDS011;21030;53.912;15.214;2022-07-23T06:49:59;4.25;;;0.45;;
34814;SDS011;21030;53.912;15.214;2022-07-23T06:52:26;3.03;;;0.43;;
34814;SDS011;21030;53.912;15.214;2022-07-23T06:54:53;0.30;;;0.22;;
34814;SDS011;21030;53.912;15.214;2022-07-23T06:57:20;2.47;;;0.77;;
34814;SDS011;21030;53.912;15.214;2022-07-23T06:59:47;0.35;;;0.30;;
34814;SDS011;21030;53.912;15.214;2022-07-23T07:02:20;0.70;;;0.70;;
34814;SDS011;21030;53.912;15.214;2022-07-23T07:04:48;0.57;;;0.28;;
34814;SDS011;21030;53.912;15.214;2022-07-23T07:07:15;1.17;;;0.60;;
34814;SDS011;21030;53.912;15.214;2022-07-23T07:09:42;0.20;;;0.20;;
34814;SDS011;21030;53.912;15.214;2022-07-23T07:12:13;3.22;;;1.10;;
34814;SDS011;21030;53.912;15.214;2022-07-23T07:14:40;1.27;;;0.63;;
34814;SDS011;21030;53.912;15.214;2022-07-23T07:17:07;0.82;;;0.68;;
34814;SDS011;21030;53.912;15.214;2022-07-23T07:19:34;0.65;;;0.38;;
34814;SDS011;21030;53.912;15.214;2022-07-23T07:22:01;0.98;;;0.63;;
34814;SDS011;21030;53.912;15.214;2022-07-23T07:24:30;0.65;;;0.40;;
34814;SDS011;21030;53.912;15.214;2022-07-23T07:27:03;0.43;;;0.38;;
34814;SDS011;21030;53.912;15.214;2022-07-23T07:29:30;1.60;;;0.40;;
34814;SDS011;21030;53.912;15.214;2022-07-23T07:31:57;0.40;;;0.32;;
34814;SDS011;21030;53.912;15.214;2022-07-23T07:34:24;1.35;;;0.73;;
34814;SDS011;21030;53.912;15.214;2022-07-23T07:36:51;0.38;;;0.38;;
34814;SDS011;21030;53.912;15.214;2022-07-23T07:39:18;0.75;;;0.38;;
34814;SDS011;21030;53.912;15.214;2022-07-23T07:41:45;3.00;;;0.68;;
34814;SDS011;21030;53.912;15.214;2022-07-23T07:44:12;0.50;;;0.47;;
34814;SDS011;21030;53.912;15.214;2022-07-23T07:46:40;2.42;;;0.95;;
34814;SDS011;21030;53.912;15.214;2022-07-23T07:49:07;0.80;;;0.60;;
34814;SDS011;21030;53.912;15.214;2022-07-23T07:51:40;1.13;;;0.60;;
34814;SDS011;21030;53.912;15.214;2022-07-23T07:54:10;35.28;;;1.52;;
34814;SDS011;21030;53.912;15.214;2022-07-23T07:56:38;1.13;;;0.85;;
34814;SDS011;21030;53.912;15.214;2022-07-23T07:59:06;7.35;;;0.45;;
34814;SDS011;21030;53.912;15.214;2022-07-23T08:01:33;1.23;;;0.80;;
34814;SDS011;21030;53.912;15.214;2022-07-23T08:04:00;2.05;;;0.52;;
34814;SDS011;21030;53.912;15.214;2022-07-23T08:06:28;1.23;;;0.60;;
34814;SDS011;21030;53.912;15.214;2022-07-23T08:08:55;2.05;;;0.50;;
34814;SDS011;21030;53.912;15.214;2022-07-23T08:11:22;5.95;;;0.80;;
34814;SDS011;21030;53.912;15.214;2022-07-23T08:13:49;8.93;;;1.17;;
34814;SDS011;21030;53.912;15.214;2022-07-23T08:16:16;0.75;;;0.20;;
34814;SDS011;21030;53.912;15.214;2022-07-23T08:18:43;0.93;;;0.35;;
34814;SDS011;21030;53.912;15.214;2022-07-23T08:21:10;3.67;;;0.98;;
34814;SDS011;21030;53.912;15.214;2022-07-23T08:23:37;0.50;;;0.20;;
34814;SDS011;21030;53.912;15.214;2022-07-23T08:26:04;11.35;;;0.55;;
34814;SDS011;21030;53.912;15.214;2022-07-23T08:28:31;1.13;;;0.70;;
34814;SDS011;21030;53.912;15.214;2022-07-23T08:30:59;0.20;;;0.20;;
34814;SDS011;21030;53.912;15.214;2022-07-23T08:33:27;2.38;;;1.02;;
34814;SDS011;21030;53.912;15.214;2022-07-23T08:36:00;0.88;;;0.52;;
34814;SDS011;21030;53.912;15.214;2022-07-23T08:38:29;2.22;;;1.20;;
34814;SDS011;21030;53.912;15.214;2022-07-23T08:40:56;1.73;;;1.17;;
34814;SDS011;21030;53.912;15.214;2022-07-23T08:43:25;1.20;;;0.40;;
34814;SDS011;21030;53.912;15.214;2022-07-23T08:45:54;1.20;;;0.60;;
34814;SDS011;21030;53.912;15.214;2022-07-23T08:48:24;0.52;;;0.38;;
34814;SDS011;21030;53.912;15.214;2022-07-23T08:50:54;0.88;;;0.68;;
34814;SDS011;21030;53.912;15.214;2022-07-23T08:53:24;11.38;;;0.68;;
34814;SDS011;21030;53.912;15.214;2022-07-23T08:55:55;1.23;;;0.65;;
34814;SDS011;21030;53.912;15.214;2022-07-23T08:58:24;6.18;;;0.95;;
34814;SDS011;21030;53.912;15.214;2022-07-23T09:00:54;1.27;;;0.90;;
34814;SDS011;21030;53.912;15.214;2022-07-23T09:03:26;1.65;;;0.80;;
34814;SDS011;21030;53.912;15.214;2022-07-23T09:05:59;1.02;;;0.22;;
34814;SDS011;21030;53.912;15.214;2022-07-23T09:08:37;1.13;;;0.75;;
34814;SDS011;21030;53.912;15.214;2022-07-23T09:11:07;0.63;;;0.40;;
34814;SDS011;21030;53.912;15.214;2022-07-23T09:13:56;1.70;;;0.82;;
34814;SDS011;21030;53.912;15.214;2022-07-23T09:16:29;0.38;;;0.30;;
34814;SDS011;21030;53.912;15.214;2022-07-23T09:19:04;0.88;;;0.40;;
34814;SDS011;21030;53.912;15.214;2022-07-23T09:21:34;1.83;;;0.88;;
34814;SDS011;21030;53.912;15.214;2022-07-23T09:24:06;0.25;;;0.17;;
34814;SDS011;21030;53.912;15.214;2022-07-23T09:26:41;1.55;;;0.68;;
34814;SDS011;21030;53.912;15.214;2022-07-23T09:29:20;1.25;;;0.60;;
34814;SDS011;21030;53.912;15.214;2022-07-23T09:36:50;0.98;;;0.47;;
34814;SDS011;21030;53.912;15.214;2022-07-23T09:39:33;0.20;;;0.20;;
34814;SDS011;21030;53.912;15.214;2022-07-23T09:42:13;0.65;;;0.40;;
34814;SDS011;21030;53.912;15.214;2022-07-23T09:44:46;0.08;;;0.08;;
34814;SDS011;21030;53.912;15.214;2022-07-23T09:47:15;0.77;;;0.25;;
34814;SDS011;21030;53.912;15.214;2022-07-23T09:52:33;6.53;;;0.45;;
34814;SDS011;21030;53.912;15.214;2022-07-23T09:55:04;4.18;;;0.40;;
34814;SDS011;21030;53.912;15.214;2022-07-23T09:57:33;0.25;;;0.15;;
34814;SDS011;21030;53.912;15.214;2022-07-23T10:00:00;0.45;;;0.35;;
34814;SDS011;21030;53.912;15.214;2022-07-23T10:02:33;0.05;;;0.05;;
34814;SDS011;21030;53.912;15.214;2022-07-23T10:07:31;1.27;;;0.52;;
34814;SDS011;21030;53.912;15.214;2022-07-23T10:10:02;0.32;;;0.32;;
34814;SDS011;21030;53.912;15.214;2022-07-23T10:12:31;0.10;;;0.10;;
34814;SDS011;21030;53.912;15.214;2022-07-23T10:15:07;1.08;;;0.28;;
34814;SDS011;21030;53.912;15.214;2022-07-23T10:17:35;0.38;;;0.25;;
34814;SDS011;21030;53.912;15.214;2022-07-23T10:20:02;0.30;;;0.13;;
34814;SDS011;21030;53.912;15.214;2022-07-23T10:22:31;0.70;;;0.30;;
34814;SDS011;21030;53.912;15.214;2022-07-23T10:27:58;1.85;;;0.25;;
34814;SDS011;21030;53.912;15.214;2022-07-23T10:39:35;0.10;;;0.10;;
34814;SDS011;21030;53.912;15.214;2022-07-23T10:42:11;0.65;;;0.30;;
34814;SDS011;21030;53.912;15.214;2022-07-23T10:44:44;0.52;;;0.25;;
34814;SDS011;21030;53.912;15.214;2022-07-23T10:47:35;0.28;;;0.22;;
34814;SDS011;21030;53.912;15.214;2022-07-23T10:50:23;0.88;;;0.52;;
34814;SDS011;21030;53.912;15.214;2022-07-23T10:58:01;1.23;;;0.30;;
34814;SDS011;21030;53.912;15.214;2022-07-23T11:00:30;0.40;;;0.20;;
34814;SDS011;21030;53.912;15.214;2022-07-23T11:03:02;0.70;;;0.30;;
34814;SDS011;21030;53.912;15.214;2022-07-23T11:05:41;2.13;;;0.60;;
34814;SDS011;21030;53.912;15.214;2022-07-23T11:08:11;9.80;;;0.45;;
34814;SDS011;21030;53.912;15.214;2022-07-23T11:10:50;4.05;;;1.27;;
34814;SDS011;21030;53.912;15.214;2022-07-23T11:26:48;0.90;;;0.50;;
34814;SDS011;21030;53.912;15.214;2022-07-23T11:31:58;6.78;;;0.32;;
34814;SDS011;21030;53.912;15.214;2022-07-23T11:36:56;0.30;;;0.30;;
34814;SDS011;21030;53.912;15.214;2022-07-23T11:39:24;1.23;;;0.68;;
34814;SDS011;21030;53.912;15.214;2022-07-23T11:41:53;0.47;;;0.30;;
34814;SDS011;21030;53.912;15.214;2022-07-23T11:44:28;0.30;;;0.20;;
34814;SDS011;21030;53.912;15.214;2022-07-23T11:49:31;1.33;;;0.68;;
34814;SDS011;21030;53.912;15.214;2022-07-23T11:52:12;0.55;;;0.32;;
34814;SDS011;21030;53.912;15.214;2022-07-23T11:54:48;1.58;;;0.20;;
34814;SDS011;21030;53.912;15.214;2022-07-23T11:57:29;0.43;;;0.10;;
34814;SDS011;21030;53.912;15.214;2022-07-23T12:00:06;0.52;;;0.30;;
34814;SDS011;21030;53.912;15.214;2022-07-23T12:02:50;1.05;;;0.60;;
34814;SDS011;21030;53.912;15.214;2022-07-23T12:07:51;0.55;;;0.20;;
34814;SDS011;21030;53.912;15.214;2022-07-23T12:10:23;0.93;;;0.38;;
34814;SDS011;21030;53.912;15.214;2022-07-23T12:12:56;2.17;;;0.38;;
34814;SDS011;21030;53.912;15.214;2022-07-23T12:15:26;0.52;;;0.43;;
34814;SDS011;21030;53.912;15.214;2022-07-23T12:18:04;0.50;;;0.20;;
34814;SDS011;21030;53.912;15.214;2022-07-23T12:20:34;0.32;;;0.22;;
34814;SDS011;21030;53.912;15.214;2022-07-23T12:23:07;0.15;;;0.15;;
34814;SDS011;21030;53.912;15.214;2022-07-23T12:25:36;0.30;;;0.05;;
34814;SDS011;21030;53.912;15.214;2022-07-23T12:30:37;0.40;;;0.25;;
34814;SDS011;21030;53.912;15.214;2022-07-23T12:33:06;0.50;;;0.28;;
34814;SDS011;21030;53.912;15.214;2022-07-23T12:38:04;2.72;;;0.35;;
34814;SDS011;21030;53.912;15.214;2022-07-23T12:40:49;0.30;;;0.10;;
34814;SDS011;21030;53.912;15.214;2022-07-23T12:48:52;0.75;;;0.30;;
34814;SDS011;21030;53.912;15.214;2022-07-23T12:51:29;0.50;;;0.20;;
34814;SDS011;21030;53.912;15.214;2022-07-23T12:54:06;0.17;;;0.17;;
34814;SDS011;21030;53.912;15.214;2022-07-23T12:56:39;1.80;;;0.63;;
34814;SDS011;21030;53.912;15.214;2022-07-23T12:59:14;1.73;;;0.38;;
34814;SDS011;21030;53.912;15.214;2022-07-23T13:01:45;0.20;;;0.15;;
34814;SDS011;21030;53.912;15.214;2022-07-23T13:04:21;0.68;;;0.10;;
34814;SDS011;21030;53.912;15.214;2022-07-23T13:06:50;0.10;;;0.10;;
34814;SDS011;21030;53.912;15.214;2022-07-23T13:09:21;0.55;;;0.40;;
34814;SDS011;21030;53.912;15.214;2022-07-23T13:11:50;3.03;;;0.70;;
34814;SDS011;21030;53.912;15.214;2022-07-23T13:14:22;1.65;;;0.30;;
34814;SDS011;21030;53.912;15.214;2022-07-23T13:16:52;1.13;;;0.22;;
34814;SDS011;21030;53.912;15.214;2022-07-23T13:19:22;0.35;;;0.10;;
34814;SDS011;21030;53.912;15.214;2022-07-23T13:21:51;0.30;;;0.30;;
34814;SDS011;21030;53.912;15.214;2022-07-23T13:24:20;0.30;;;0.22;;
34814;SDS011;21030;53.912;15.214;2022-07-23T13:26:47;1.55;;;0.60;;
34814;SDS011;21030;53.912;15.214;2022-07-23T13:31:46;0.80;;;0.30;;
34814;SDS011;21030;53.912;15.214;2022-07-23T13:34:14;1.90;;;0.70;;
34814;SDS011;21030;53.912;15.214;2022-07-23T13:36:42;0.22;;;0.10;;
34814;SDS011;21030;53.912;15.214;2022-07-23T13:39:10;0.17;;;0.10;;
34814;SDS011;21030;53.912;15.214;2022-07-23T13:41:37;0.50;;;0.10;;
34814;SDS011;21030;53.912;15.214;2022-07-23T13:44:04;1.35;;;0.20;;
34814;SDS011;21030;53.912;15.214;2022-07-23T13:46:32;0.15;;;0.05;;
34814;SDS011;21030;53.912;15.214;2022-07-23T13:49:00;3.40;;;0.25;;
34814;SDS011;21030;53.912;15.214;2022-07-23T13:51:28;0.40;;;0.20;;
34814;SDS011;21030;53.912;15.214;2022-07-23T13:53:55;0.25;;;0.20;;
34814;SDS011;21030;53.912;15.214;2022-07-23T13:56:25;0.20;;;0.20;;
34814;SDS011;21030;53.912;15.214;2022-07-23T13:58:52;0.10;;;0.10;;
34814;SDS011;21030;53.912;15.214;2022-07-23T14:01:19;0.88;;;0.63;;
34814;SDS011;21030;53.912;15.214;2022-07-23T14:03:47;0.13;;;0.10;;
34814;SDS011;21030;53.912;15.214;2022-07-23T14:06:14;0.20;;;0.10;;
34814;SDS011;21030;53.912;15.214;2022-07-23T14:08:45;0.50;;;0.25;;
34814;SDS011;21030;53.912;15.214;2022-07-23T14:11:13;0.20;;;0.10;;
34814;SDS011;21030;53.912;15.214;2022-07-23T14:13:40;0.17;;;0.17;;
34814;SDS011;21030;53.912;15.214;2022-07-23T14:16:07;0.40;;;0.20;;
34814;SDS011;21030;53.912;15.214;2022-07-23T14:18:34;0.28;;;0.22;;
34814;SDS011;21030;53.912;15.214;2022-07-23T14:21:03;0.57;;;0.30;;
34814;SDS011;21030;53.912;15.214;2022-07-23T14:23:32;1.38;;;0.75;;
34814;SDS011;21030;53.912;15.214;2022-07-23T14:26:00;0.52;;;0.00;;
34814;SDS011;21030;53.912;15.214;2022-07-23T14:28:32;0.53;;;0.10;;
34814;SDS011;21030;53.912;15.214;2022-07-23T14:31:01;0.40;;;0.20;;
34814;SDS011;21030;53.912;15.214;2022-07-23T14:33:29;0.28;;;0.17;;
34814;SDS011;21030;53.912;15.214;2022-07-23T14:35:56;0.30;;;0.22;;
34814;SDS011;21030;53.912;15.214;2022-07-23T14:38:24;3.53;;;0.38;;
34814;SDS011;21030;53.912;15.214;2022-07-23T14:40:51;0.00;;;0.00;;
34814;SDS011;21030;53.912;15.214;2022-07-23T14:43:18;0.32;;;0.20;;
34814;SDS011;21030;53.912;15.214;2022-07-23T14:45:45;0.25;;;0.15;;
34814;SDS011;21030;53.912;15.214;2022-07-23T14:48:14;0.38;;;0.10;;
34814;SDS011;21030;53.912;15.214;2022-07-23T14:50:43;0.43;;;0.10;;
34814;SDS011;21030;53.912;15.214;2022-07-23T14:53:11;12.52;;;0.52;;
34814;SDS011;21030;53.912;15.214;2022-07-23T14:55:38;0.55;;;0.10;;
34814;SDS011;21030;53.912;15.214;2022-07-23T14:58:05;2.45;;;0.25;;
34814;SDS011;21030;53.912;15.214;2022-07-23T15:00:33;1.27;;;0.55;;
34814;SDS011;21030;53.912;15.214;2022-07-23T15:03:00;0.25;;;0.08;;
34814;SDS011;21030;53.912;15.214;2022-07-23T15:05:27;0.38;;;0.30;;
34814;SDS011;21030;53.912;15.214;2022-07-23T15:07:55;0.10;;;0.10;;
34814;SDS011;21030;53.912;15.214;2022-07-23T15:10:22;0.10;;;0.10;;
34814;SDS011;21030;53.912;15.214;2022-07-23T15:12:50;0.57;;;0.40;;
34814;SDS011;21030;53.912;15.214;2022-07-23T15:15:19;0.07;;;0.07;;
34814;SDS011;21030;53.912;15.214;2022-07-23T15:17:46;0.38;;;0.20;;
34814;SDS011;21030;53.912;15.214;2022-07-23T15:20:15;0.55;;;0.28;;
34814;SDS011;21030;53.912;15.214;2022-07-23T15:23:02;0.40;;;0.22;;
34814;SDS011;21030;53.912;15.214;2022-07-23T15:25:33;0.38;;;0.20;;
34814;SDS011;21030;53.912;15.214;2022-07-23T15:28:01;0.45;;;0.00;;
34814;SDS011;21030;53.912;15.214;2022-07-23T15:30:29;0.22;;;0.20;;
34814;SDS011;21030;53.912;15.214;2022-07-23T15:32:56;0.10;;;0.10;;
34814;SDS011;21030;53.912;15.214;2022-07-23T15:35:24;1.77;;;0.45;;
34814;SDS011;21030;53.912;15.214;2022-07-23T15:37:51;0.82;;;0.28;;
34814;SDS011;21030;53.912;15.214;2022-07-23T15:40:20;0.77;;;0.32;;
34814;SDS011;21030;53.912;15.214;2022-07-23T15:42:47;0.65;;;0.32;;
34814;SDS011;21030;53.912;15.214;2022-07-23T15:45:15;0.43;;;0.28;;
34814;SDS011;21030;53.912;15.214;2022-07-23T15:47:43;0.00;;;0.00;;
34814;SDS011;21030;53.912;15.214;2022-07-23T15:50:11;0.10;;;0.10;;